This is the latest recevied weather packets stored in our database for station/object IU7LMH-13. If no packets are shown the sender has not sent any weather packets the latest 10 day(s).
| Time | Temp. | Humidity | Pressure | Rain* | Wind** | Luminosity | Snow |
|---|---|---|---|---|---|---|---|
| 1777673918 | 11.67° C | 63% | 1021 hPa | 0 mm | - | - | - |
| 1777670918 | 11.67° C | 58% | 1021.2 hPa | 0 mm | - | - | - |
| 1777669357 | 12.22° C | 54% | 1021 hPa | 0 mm | - | - | - |
| 1777667559 | 12.22° C | 50% | 1021.1 hPa | 0 mm | - | - | - |
| 1777666840 | 12.22° C | 49% | 1020.9 hPa | 0 mm | - | - | - |
| 1777666597 | 12.22° C | 49% | 1020.9 hPa | 0 mm | - | - | - |
| 1777666356 | 12.22° C | 48% | 1021.1 hPa | 0 mm | - | - | - |
| 1777665398 | 12.22° C | 49% | 1021.1 hPa | 0 mm | - | - | - |
| 1777665276 | 11.67° C | 49% | 1021.2 hPa | 0 mm | - | - | - |
| 1777665042 | 11.67° C | 50% | 1021.1 hPa | 0 mm | - | - | - |
| 1777664917 | 11.67° C | 50% | 1021 hPa | 0 mm | - | - | - |
| 1777663844 | 11.67° C | 52% | 1021 hPa | 0 mm | - | - | - |
| 1777660598 | 12.78° C | 51% | 1020.5 hPa | 0 mm | - | - | - |
| 1777660358 | 12.78° C | 51% | 1020.3 hPa | 0 mm | - | - | - |
| 1777660246 | 12.78° C | 51% | 1020.4 hPa | 0 mm | - | - | - |
| 1777659998 | 12.78° C | 50% | 1020.3 hPa | 0 mm | - | - | - |
| 1777659277 | 12.78° C | 50% | 1020.3 hPa | 0 mm | - | - | - |
| 1777658446 | 13.33° C | 50% | 1020 hPa | 0 mm | - | - | - |
| 1777657717 | 13.89° C | 47% | 1019.9 hPa | 0 mm | - | - | - |
| 1777657598 | 13.89° C | 47% | 1019.7 hPa | 0 mm | - | - | - |
| 1777657357 | 13.89° C | 46% | 1019.9 hPa | 0 mm | - | - | - |
| 1777657244 | 13.89° C | 46% | 1020.1 hPa | 0 mm | - | - | - |
| 1777656996 | 14.44° C | 46% | 1019.9 hPa | 0 mm | - | - | - |
| 1777656279 | 15° C | 45% | 1019.9 hPa | 0 mm | - | - | - |
| 1777653644 | 16.11° C | 40% | 1019.6 hPa | 0 mm | - | - | - |
* Rain latest hour (hover to see other rain measurements)
** Current wind speed in m/s (hover to see current wind gust speed)